Aeroporto :
LOGIN :

Iscrizione | Disclaimer

   EN    FR    IT 

 










Sommario :    VFR   VFR Marginale   IFR   IFR Intensivo   IFR Molto Intensivo
Visibilità : 
Base nubi : 
>= 8 km
>= 3000ft
5 / 8 km
1000 / 3000 ft
1500m / 5 km
500 / 1000 ft
800 / 1500m
200 / 500 ft
< 800m
< 200 ft
Simboli :   Temporali  Nebbia  Neve Forte  Precipitazioni Forti  Vento > 20 kt
SIGMETs :   Varie  Temporali  Ghiacco  Turbolenza  Onda orograficha  Ceneri Vulcaniche






- Altitudine del aeroporto : 433 ft
- Codice IATA : CCF


LFMK - Carcassonne

ULTIMO METAR :
  • 201630Z AUTO 09011KT 060V130 CAVOK 10/07 Q1007 NOSIG

METARs OBSOLETI :
  • 201600Z AUTO 08011KT CAVOK 10/07 Q1007 TEMPO 08015G25KT
  • 201530Z AUTO 09012KT 9999 SCT025 11/05 Q1007 TEMPO 08015G25KT
  • 201500Z AUTO 09015KT 9999 BKN027 11/07 Q1007 TEMPO 08015G25KT
  • 201430Z AUTO 08017KT 9999 BKN022 BKN027 11/07 Q1007 TEMPO 08015G25KT BKN014
  • 201400Z AUTO 08017KT 9999 BKN023 BKN029 11/06 Q1008 TEMPO 08015G25KT BKN014

TAF TAF LFMK
Valido dal 20 a 15 ore il 21 a 15 ore UTC


201400Z 2015/2115 09015KT 9999 BKN022
TEMPO 2015/2017 08015G25KT
BECMG 2020/2022 BKN008
BECMG 2101/2103 10005KT SCT010
PROB30
TEMPO 2106/2109 3000 BR BKN005
BECMG 2110/2112 CAVOK



MetMap, La meteo Aeronautica in un colpo d'occhio ! - Copyright ORBIFLY Dicembre 2007 - Disclaimer

ORBIFLY MET'MAP TEAM :

Programmazione e sviluppo : Alexandra Zaïnal
Concezione e sviluppo : Baudouin d'Aumeries
Co-Programmazione e sviluppo : Marc-Olivier Méhu
Supporto tecnico e logistico : Manuel Goepfert
Aiuto per la traduzione : Arnaldo La Scala

Contatto : metmap@orbifly.com




FONTI E CREDITI :

   NOAA